Skip to main content

Zebreira

ID 1210803 · 39.8667, -7.0167 map

Latest reading · 2026-05-09 19:00 (Europe/Lisbon)

Temperature
15.2 °C
Humidity
76 %
Pressure
Precipitation
0.1 mm
Radiation
639 W/m²
Wind speed
11.9 km/h
Wind direction
SW · South-west

24-hour history

Time (Europe/Lisbon) Temp Humidity Pressure Rain Wind Dir
2026-05-09 19:00 15.2 °C 76 % 0.1 mm 11.9 km/h SW
2026-05-09 18:00 17.0 °C 61 % 1.5 mm 19.8 km/h SW
2026-05-09 17:00 19.7 °C 45 % 0.0 mm 26.3 km/h SW
2026-05-09 16:00 19.2 °C 50 % 0.0 mm 26.3 km/h SW
2026-05-09 15:00 17.9 °C 64 % 0.0 mm 25.6 km/h SW
2026-05-09 14:00 16.2 °C 79 % 0.0 mm 23.8 km/h SW
2026-05-09 13:00 14.1 °C 94 % 0.8 mm 24.5 km/h SE
2026-05-09 12:00 12.5 °C 96 % 1.5 mm 13.3 km/h SE
2026-05-09 11:00 12.2 °C 95 % 1.6 mm 16.2 km/h SE
2026-05-09 10:00 11.8 °C 94 % 0.3 mm 14.4 km/h E
2026-05-09 09:00 11.5 °C 95 % 1.6 mm 14.8 km/h SE
2026-05-09 08:00 12.5 °C 79 % 0.4 mm 16.6 km/h E
2026-05-09 07:00 13.5 °C 65 % 0.0 mm 16.9 km/h SE
2026-05-09 06:00 13.3 °C 68 % 0.0 mm 11.5 km/h SE
2026-05-09 05:00 13.5 °C 69 % 0.0 mm 9.7 km/h SE
2026-05-09 04:00 13.9 °C 67 % 0.0 mm 7.2 km/h SE
2026-05-09 03:00 13.9 °C 70 % 0.0 mm 7.2 km/h SE
2026-05-09 02:00 13.4 °C 76 % 0.0 mm 1.1 km/h E
2026-05-09 01:00 14.5 °C 68 % 0.0 mm 9.0 km/h SW
2026-05-09 00:00 15.7 °C 56 % 0.0 mm 9.7 km/h SW
2026-05-08 23:00 16.8 °C 42 % 0.0 mm 9.0 km/h S
2026-05-08 22:00 17.0 °C 40 % 0.0 mm 5.8 km/h SE
2026-05-08 21:00 18.1 °C 37 % 0.0 mm 2.2 km/h SE
2026-05-08 20:00 18.8 °C 37 % 0.0 mm 0.4 km/h SE